Mc Call Municipal Airport
KMYL : now visible

Airfield :











YOU CAN JOIN US ON...

 
LOGIN :

Register | Disclaimer

   EN    FR    IT 

 









Legend :    VFR   Marginal VFR   IFR   Intensive IFR   Very Intensive IFR
Visi :
Ceiling :
>= 8 km
>= 3000ft
5 to 8 km
1000 to 3000 ft
1500m to 5 km
500 to 1000 ft
800 to 1500m
200 to 500 ft
< 800m
< 200 ft
Symbols :   Thunderstorms  Fog  Heavy snow  Heavy precipitations  Wind > 20 kt






- Airport Elevation : 5024 ft


KMYL - Mc Call Municipal

CURRENT METAR :
  • 070351Z AUTO 36010KT 10SM FEW120 08/03 A2969 RMK AO2 SLP037 T00830028 $

EXPIRED METARs :
  • 070251Z AUTO 35008KT 10SM FEW029 09/03 A2969 RMK AO2 SLP037 T00890028 50002 $
  • 070151Z AUTO 31004KT 10SM SCT033 09/05 A2970 RMK AO2 SLP039 T00940050 $
  • 070135Z AUTO 34008KT 10SM FEW023 SCT029 BKN036 10/04 A2969 RMK AO2 T01000039 $
  • 070128Z AUTO 36010G16KT 10SM FEW023 BKN029 BKN075 10/03 A2970 RMK AO2 T01000033 $

TAF KMYL
Valid from the 07 at 00:00 until the 08 at 00:00 UTC


062320Z 0700/0724 35006KT P6SM VCSH SCT020 OVC060
FM070600 34006KT 6SM -SHRA OVC030
FM071200 29006KT 3SM -RASN BR OVC015
FM071600 27006KT 3/4SM -SN OVC008
FM071800 26008KT 3SM -SHRASN OVC020
KZLC FIR / North America



MET'MAP, your aeronautical weather chart ! - Copyright ORBIFLY December 2007 - Disclaimer

ORBIFLY MET'MAP TEAM :

Programming & Development : Alexandra Zaïnal
Concept & original design : Baudouin d'Aumeries
Assistance for programming : Marc-Olivier Méhu
Technical & hardware support : Manuel Goepfert

Contact : metmap@orbifly.com




SOURCES & CREDITS :

   NOAA       Earth
Advisory